Time;durP1;ratioP1;P1;durP2;ratioP2;P2;SDS_P1;SDS_P2;PMS_P1;PMS_P2;Temp;Humidity;BMP_temperature;BMP_pressure;BME280_temperature;BME280_humidity;BME280_pressure;Samples;Min_cycle;Max_cycle;Signal;HPM_P1;HPM_P2
2023/05/06 00:02:15;;;;;;;5.07;3.80;;;12.60;99.90;;;;;;5002186;28;20199;-94
2023/05/06 00:04:42;;;;;;;4.53;3.53;;;12.60;99.90;;;;;;5000292;28;20803;-94
2023/05/06 00:09:56;;;;;;;4.35;3.38;;;12.50;99.90;;;;;;5017156;28;20203;-94
2023/05/06 00:12:25;;;;;;;4.68;3.35;;;12.50;99.90;;;;;;5016686;28;20196;-95
2023/05/06 00:14:52;;;;;;;5.13;3.25;;;12.50;99.90;;;;;;5015645;28;20231;-94
2023/05/06 00:17:18;;;;;;;3.42;2.83;;;12.50;99.90;;;;;;5013257;28;20215;-94
2023/05/06 00:19:45;;;;;;;3.65;3.35;;;12.50;99.90;;;;;;5017548;28;20195;-94
2023/05/06 00:22:12;;;;;;;6.45;3.30;;;12.60;99.90;;;;;;5009456;28;20199;-93
2023/05/06 00:24:39;;;;;;;6.03;3.10;;;12.60;99.90;;;;;;5019848;28;20194;-95
2023/05/06 00:27:06;;;;;;;4.25;3.00;;;12.50;99.90;;;;;;4995333;28;20613;-94
2023/05/06 00:32:15;;;;;;;8.40;3.40;;;12.40;99.90;;;;;;5000092;28;20207;-94
2023/05/06 00:37:23;;;;;;;4.15;2.90;;;12.50;99.90;;;;;;5004253;28;20611;-95
2023/05/06 00:39:50;;;;;;;5.18;3.15;;;12.40;99.90;;;;;;4996579;28;20203;-93
2023/05/06 00:42:17;;;;;;;4.13;2.90;;;12.40;99.90;;;;;;4997598;28;20192;-95
2023/05/06 00:47:26;;;;;;;3.55;3.05;;;12.40;99.90;;;;;;5002193;28;20231;-94
2023/05/06 00:49:54;;;;;;;3.10;2.80;;;12.40;99.90;;;;;;4993256;28;20196;-94
2023/05/06 00:52:21;;;;;;;3.25;2.80;;;12.40;99.90;;;;;;5014884;28;20196;-94
2023/05/06 00:57:33;;;;;;;4.53;2.90;;;12.40;99.90;;;;;;5026513;28;20206;-93
2023/05/06 01:03:16;;;;;;;3.05;2.85;;;12.10;99.90;;;;;;4985713;28;20202;-94
2023/05/06 01:14:17;;;;;;;3.83;2.85;;;12.00;99.90;;;;;;4996443;28;20241;-94
2023/05/06 01:22:46;;;;;;;3.75;3.20;;;11.90;99.90;;;;;;5014279;28;20207;-94
2023/05/06 01:28:07;;;;;;;3.80;2.60;;;11.90;99.90;;;;;;5006953;28;20206;-93
2023/05/06 01:30:59;;;;;;;6.28;2.92;;;12.00;99.90;;;;;;5004237;28;20458;-94
2023/05/06 01:33:36;;;;;;;3.65;2.63;;;12.00;99.90;;;;;;4989957;28;20214;-94
2023/05/06 01:50:33;;;;;;;4.95;2.78;;;12.00;99.90;;;;;;5012648;28;20209;-94
2023/05/06 01:53:01;;;;;;;3.50;2.80;;;11.90;99.90;;;;;;5017887;28;20221;-94
2023/05/06 01:55:29;;;;;;;5.43;2.97;;;11.80;99.90;;;;;;5018364;28;20258;-94
2023/05/06 01:58:17;;;;;;;4.28;2.70;;;11.80;99.90;;;;;;5015533;28;20207;-94
2023/05/06 02:01:05;;;;;;;3.17;2.88;;;11.80;99.90;;;;;;4987712;28;20204;-95
2023/05/06 02:03:32;;;;;;;3.20;2.90;;;11.80;99.90;;;;;;4996113;28;20218;-95
2023/05/06 02:05:59;;;;;;;3.80;3.05;;;11.90;99.90;;;;;;4985125;28;20592;-94
2023/05/06 02:08:26;;;;;;;4.95;2.75;;;11.80;99.90;;;;;;5015615;28;20278;-93
2023/05/06 02:10:52;;;;;;;3.67;3.13;;;11.80;99.90;;;;;;5018375;28;20214;-95
2023/05/06 02:16:02;;;;;;;2.78;2.58;;;11.80;99.90;;;;;;5001529;28;20246;-93
2023/05/06 02:18:29;;;;;;;5.05;3.08;;;11.80;99.90;;;;;;5006379;28;20285;-95
2023/05/06 02:20:55;;;;;;;2.95;2.63;;;11.80;99.90;;;;;;5005461;28;20687;-93
2023/05/06 02:23:22;;;;;;;2.92;2.60;;;11.90;99.90;;;;;;5007266;28;20196;-95
2023/05/06 02:25:50;;;;;;;3.85;2.60;;;11.90;99.90;;;;;;5016858;28;20196;-94
2023/05/06 02:28:17;;;;;;;5.50;2.63;;;12.00;99.90;;;;;;5017363;28;20200;-95
2023/05/06 02:33:26;;;;;;;3.72;2.53;;;12.00;99.90;;;;;;5009705;28;20250;-95
2023/05/06 02:35:53;;;;;;;3.03;2.10;;;11.90;99.90;;;;;;5023547;28;20239;-94
2023/05/06 02:38:22;;;;;;;2.58;2.30;;;11.90;99.90;;;;;;5017807;28;20302;-93
2023/05/06 02:40:49;;;;;;;3.03;2.72;;;11.80;99.90;;;;;;5018717;28;20208;-94
2023/05/06 02:43:16;;;;;;;3.97;2.90;;;11.70;99.90;;;;;;5016111;28;20223;-94
2023/05/06 02:45:43;;;;;;;4.45;2.65;;;11.60;99.90;;;;;;5009405;28;20195;-94
2023/05/06 02:50:52;;;;;;;2.90;2.70;;;11.60;99.90;;;;;;5007624;28;20230;-93
2023/05/06 02:53:19;;;;;;;2.65;2.45;;;11.60;99.90;;;;;;5024976;28;20263;-94
2023/05/06 02:55:46;;;;;;;2.88;2.58;;;11.70;99.90;;;;;;5007253;28;20218;-93
2023/05/06 02:58:13;;;;;;;4.45;3.05;;;11.70;99.90;;;;;;5019384;28;20230;-93
2023/05/06 03:00:40;;;;;;;2.85;2.65;;;11.60;99.90;;;;;;5004258;28;20219;-92
2023/05/06 03:03:06;;;;;;;3.55;2.60;;;11.60;99.90;;;;;;5030440;28;20200;-92
2023/05/06 03:05:55;;;;;;;3.97;2.60;;;11.50;99.90;;;;;;5014089;28;20230;-93
2023/05/06 03:11:25;;;;;;;5.32;2.60;;;11.50;99.90;;;;;;4995812;28;20234;-94
2023/05/06 03:13:52;;;;;;;4.60;2.90;;;11.60;99.90;;;;;;5024424;28;20231;-93
2023/05/06 03:16:20;;;;;;;5.47;2.90;;;11.60;99.90;;;;;;5005404;28;20219;-95
2023/05/06 03:18:47;;;;;;;3.13;2.63;;;11.70;99.90;;;;;;5023797;28;20263;-94
2023/05/06 03:23:56;;;;;;;3.22;2.65;;;11.70;99.90;;;;;;5001832;28;20210;-93
2023/05/06 03:26:23;;;;;;;4.00;2.88;;;11.70;99.90;;;;;;5021653;28;20220;-94
2023/05/06 03:28:51;;;;;;;3.10;2.80;;;11.70;99.90;;;;;;5001710;28;20228;-92
2023/05/06 03:31:19;;;;;;;3.30;2.92;;;11.70;99.90;;;;;;5001660;28;20232;-93
2023/05/06 03:34:09;;;;;;;3.00;2.80;;;11.70;99.90;;;;;;5001012;28;20212;-93
2023/05/06 03:36:37;;;;;;;4.88;2.70;;;11.70;99.90;;;;;;5018162;28;20243;-95
2023/05/06 03:39:05;;;;;;;3.20;2.90;;;11.70;99.90;;;;;;5018100;28;20232;-93
2023/05/06 03:41:31;;;;;;;3.05;2.80;;;11.60;99.90;;;;;;5024939;28;20209;-93
2023/05/06 03:44:01;;;;;;;3.30;2.63;;;11.50;99.90;;;;;;5021256;28;20306;-95
2023/05/06 03:46:28;;;;;;;4.57;2.45;;;11.50;99.90;;;;;;5024808;28;20230;-95
2023/05/06 03:51:37;;;;;;;3.42;3.13;;;11.50;99.90;;;;;;5008299;28;20207;-94
2023/05/06 03:54:05;;;;;;;3.72;2.55;;;11.40;99.90;;;;;;5006037;28;20262;-92
2023/05/06 03:59:12;;;;;;;3.10;2.80;;;11.30;99.90;;;;;;5015400;28;20207;-94
2023/05/06 04:01:40;;;;;;;2.70;2.50;;;11.30;99.90;;;;;;5022092;28;20234;-92
2023/05/06 04:04:07;;;;;;;3.00;2.60;;;11.20;99.90;;;;;;4990594;28;20199;-93
2023/05/06 04:06:34;;;;;;;3.30;2.85;;;11.20;99.90;;;;;;5005863;28;20230;-93
2023/05/06 04:09:05;;;;;;;5.15;2.70;;;11.30;99.90;;;;;;5019949;28;20307;-92
2023/05/06 04:11:50;;;;;;;4.20;2.80;;;11.30;99.90;;;;;;5022175;28;20200;-94
2023/05/06 04:14:18;;;;;;;2.83;2.55;;;11.30;99.90;;;;;;5025824;28;20230;-94
2023/05/06 04:16:46;;;;;;;2.90;2.70;;;11.40;99.90;;;;;;5031043;28;20215;-92
2023/05/06 04:19:13;;;;;;;3.17;2.70;;;11.30;99.90;;;;;;5032824;28;20228;-92
2023/05/06 04:21:40;;;;;;;2.97;2.67;;;11.30;99.90;;;;;;5030618;28;20207;-91
2023/05/06 04:26:50;;;;;;;3.15;2.42;;;11.40;99.90;;;;;;5020013;28;20272;-94
2023/05/06 04:29:17;;;;;;;3.38;2.55;;;11.50;99.90;;;;;;5006577;28;20286;-93
2023/05/06 04:31:45;;;;;;;4.00;2.70;;;11.50;99.90;;;;;;5002925;28;20254;-94
2023/05/06 04:34:12;;;;;;;3.88;2.60;;;11.50;99.90;;;;;;5005634;28;20239;-94
2023/05/06 04:36:39;;;;;;;5.45;2.60;;;11.50;99.90;;;;;;5006411;28;20229;-94
2023/05/06 04:39:09;;;;;;;2.53;2.33;;;11.50;99.90;;;;;;5025939;28;20213;-94
2023/05/06 04:46:59;;;;;;;2.75;2.30;;;11.50;99.90;;;;;;4991674;28;20210;-93
2023/05/06 04:49:26;;;;;;;2.88;2.22;;;11.50;99.90;;;;;;4990212;28;20203;-93
2023/05/06 04:51:53;;;;;;;2.88;2.53;;;11.40;99.90;;;;;;5001651;28;20225;-93
2023/05/06 04:57:37;;;;;;;2.80;2.40;;;11.60;99.90;;;;;;4952885;28;20207;-94
2023/05/06 05:00:05;;;;;;;2.70;2.30;;;11.70;99.90;;;;;;5018510;28;20213;-95
2023/05/06 05:07:54;;;;;;;2.53;2.33;;;11.90;99.90;;;;;;4999805;28;20207;-94
2023/05/06 05:15:46;;;;;;;3.42;2.55;;;12.10;99.90;;;;;;5002539;28;20220;-94
2023/05/06 05:18:13;;;;;;;3.05;2.50;;;12.20;99.90;;;;;;5015900;28;20728;-95
2023/05/06 05:20:42;;;;;;;2.60;2.40;;;12.20;99.90;;;;;;4999329;28;20199;-92
2023/05/06 05:23:10;;;;;;;4.43;2.25;;;12.20;99.90;;;;;;5020802;28;20222;-92
2023/05/06 05:31:14;;;;;;;3.55;2.33;;;12.50;99.90;;;;;;5538869;22;20223;-95
2023/05/06 05:57:05;;;;;;;2.88;2.60;;;12.90;99.90;;;;;;6101659;22;21164;-94
2023/05/06 07:06:57;;;;;;;7.10;4.28;;;14.00;99.90;;;;;;5475670;22;20488;-93
2023/05/06 07:09:24;;;;;;;7.45;4.55;;;14.10;99.90;;;;;;4996869;28;20227;-95
2023/05/06 07:11:51;;;;;;;7.32;5.32;;;14.30;99.90;;;;;;4989484;28;20264;-95
2023/05/06 07:14:18;;;;;;;5.53;5.00;;;14.40;99.90;;;;;;4989969;28;20284;-94
2023/05/06 07:16:45;;;;;;;6.78;5.22;;;14.50;99.90;;;;;;4992434;28;20275;-93
2023/05/06 07:27:01;;;;;;;6.10;5.50;;;15.10;99.90;;;;;;5738138;22;20226;-94
2023/05/06 07:29:29;;;;;;;6.55;5.18;;;15.30;99.90;;;;;;5373946;23;20338;-91
2023/05/06 07:31:55;;;;;;;5.85;5.30;;;15.50;99.90;;;;;;4981193;28;20291;-91
2023/05/06 07:34:22;;;;;;;6.57;5.97;;;15.90;99.90;;;;;;5000477;28;20192;-93
2023/05/06 07:50:30;;;;;;;6.60;5.72;;;16.60;97.00;;;;;;4971644;28;20225;-95
2023/05/06 07:52:58;;;;;;;7.38;6.07;;;16.90;95.50;;;;;;4969961;28;20602;-92
2023/05/06 07:55:26;;;;;;;6.90;6.20;;;16.70;95.90;;;;;;4954208;28;20220;-91
2023/05/06 07:57:53;;;;;;;8.18;6.05;;;16.50;97.30;;;;;;4968629;28;20206;-90
2023/05/06 08:00:20;;;;;;;5.85;5.30;;;16.70;96.80;;;;;;4954240;28;20611;-92
2023/05/06 08:02:47;;;;;;;10.95;6.05;;;16.90;96.00;;;;;;4972794;28;20193;-92
2023/05/06 08:05:16;;;;;;;7.07;5.50;;;16.60;95.90;;;;;;4965865;28;20205;-92
2023/05/06 08:07:43;;;;;;;6.82;5.78;;;16.50;96.90;;;;;;4973004;28;20228;-93
2023/05/06 08:10:11;;;;;;;6.28;5.43;;;16.50;97.00;;;;;;4935572;28;20200;-92
2023/05/06 08:12:38;;;;;;;6.25;5.57;;;16.40;98.30;;;;;;4964224;28;20208;-92
2023/05/06 08:15:06;;;;;;;8.25;5.75;;;16.40;98.10;;;;;;4971935;28;20573;-90
2023/05/06 08:17:34;;;;;;;7.00;6.03;;;16.40;97.20;;;;;;4962568;28;20229;-93
2023/05/06 08:20:01;;;;;;;6.43;5.20;;;16.30;97.20;;;;;;4959337;28;20197;-90
2023/05/06 08:22:27;;;;;;;9.07;5.38;;;16.40;97.20;;;;;;4954806;28;20216;-92
2023/05/06 08:24:56;;;;;;;5.72;5.13;;;16.40;98.00;;;;;;4967663;28;20207;-92
2023/05/06 08:27:24;;;;;;;7.78;5.22;;;16.50;97.30;;;;;;4966400;28;20252;-91
2023/05/06 08:29:51;;;;;;;6.35;4.57;;;16.40;96.80;;;;;;4961237;28;20553;-90
2023/05/06 08:32:18;;;;;;;6.97;5.10;;;16.40;97.20;;;;;;4969586;28;20556;-93
2023/05/06 08:34:45;;;;;;;7.13;4.60;;;16.50;97.00;;;;;;4954234;28;20197;-93
2023/05/06 08:37:12;;;;;;;8.15;4.63;;;16.70;96.50;;;;;;4970307;28;20231;-90
2023/05/06 08:39:39;;;;;;;6.43;4.63;;;16.80;95.00;;;;;;4972661;28;20637;-90
2023/05/06 08:42:10;;;;;;;5.00;4.30;;;17.10;96.10;;;;;;4955039;28;20912;-91
2023/05/06 08:44:39;;;;;;;5.80;4.25;;;17.30;95.10;;;;;;4967108;28;20201;-93
2023/05/06 08:47:06;;;;;;;9.02;4.15;;;17.50;94.30;;;;;;4958738;28;20273;-91
2023/05/06 08:49:33;;;;;;;5.93;5.00;;;17.70;94.10;;;;;;4966281;28;20579;-91
2023/05/06 08:52:04;;;;;;;6.35;5.10;;;17.70;93.30;;;;;;4950942;28;20209;-91
2023/05/06 08:54:34;;;;;;;6.20;4.68;;;17.60;92.10;;;;;;4967099;28;20196;-91
2023/05/06 08:57:04;;;;;;;7.20;4.63;;;17.70;93.50;;;;;;4966028;28;20224;-91
2023/05/06 08:59:32;;;;;;;4.80;4.22;;;17.90;93.50;;;;;;4965578;28;20684;-91
2023/05/06 09:02:01;;;;;;;4.93;4.32;;;18.20;90.70;;;;;;4975488;28;20264;-92
2023/05/06 09:04:28;;;;;;;4.07;3.67;;;18.20;91.90;;;;;;4964820;28;20197;-91
2023/05/06 09:06:57;;;;;;;6.65;3.83;;;18.10;92.20;;;;;;4968380;28;20227;-91
2023/05/06 09:09:25;;;;;;;7.30;4.00;;;18.00;91.90;;;;;;4973684;28;20184;-92
2023/05/06 09:11:53;;;;;;;4.35;3.72;;;18.10;91.00;;;;;;4962580;28;20211;-91
2023/05/06 09:14:21;;;;;;;4.38;3.50;;;18.10;90.80;;;;;;4957562;28;20205;-91
2023/05/06 09:16:50;;;;;;;4.28;3.65;;;18.60;90.30;;;;;;4964840;28;20221;-92
2023/05/06 09:19:22;;;;;;;5.35;3.50;;;19.10;83.40;;;;;;4965018;28;20255;-87
2023/05/06 09:21:50;;;;;;;4.50;3.63;;;19.30;78.90;;;;;;4961920;28;20666;-91
2023/05/06 09:24:18;;;;;;;5.28;2.83;;;19.20;80.20;;;;;;4967170;28;20212;-90
2023/05/06 09:26:46;;;;;;;4.95;3.22;;;18.80;83.60;;;;;;4936965;28;20213;-92
2023/05/06 09:29:13;;;;;;;12.57;10.77;;;18.60;79.90;;;;;;4955195;28;20869;-91
2023/05/06 09:31:45;;;;;;;4.55;2.90;;;18.40;84.00;;;;;;4969914;28;20708;-92
2023/05/06 09:34:13;;;;;;;7.85;6.03;;;18.60;82.40;;;;;;4975095;28;20235;-92
2023/05/06 09:36:41;;;;;;;4.70;3.72;;;18.90;81.80;;;;;;4963233;28;20349;-93
2023/05/06 09:39:08;;;;;;;4.60;3.72;;;19.10;82.20;;;;;;4966706;28;20284;-94
2023/05/06 09:41:35;;;;;;;3.95;3.47;;;19.40;74.60;;;;;;4971096;28;20204;-90
2023/05/06 09:44:03;;;;;;;9.20;8.10;;;19.70;72.10;;;;;;4961248;28;20204;-92
2023/05/06 09:46:30;;;;;;;2.92;2.45;;;19.60;70.80;;;;;;4967287;28;20267;-92
2023/05/06 09:48:59;;;;;;;4.28;3.10;;;19.40;73.70;;;;;;4964419;28;20220;-93
2023/05/06 09:51:27;;;;;;;5.03;3.65;;;18.90;77.90;;;;;;4961317;28;20285;-93
2023/05/06 09:53:56;;;;;;;3.97;2.92;;;18.60;79.90;;;;;;4957529;28;20225;-91
2023/05/06 09:56:24;;;;;;;5.80;3.53;;;18.40;80.20;;;;;;4960878;28;20696;-94
2023/05/06 09:58:53;;;;;;;4.88;3.30;;;18.90;80.00;;;;;;4960272;28;20213;-94
2023/05/06 10:01:21;;;;;;;2.78;2.58;;;19.70;59.00;;;;;;4966607;28;20201;-94
2023/05/06 10:03:50;;;;;;;7.90;4.53;;;19.60;60.60;;;;;;4945861;28;20215;-92
2023/05/06 10:06:19;;;;;;;4.50;3.30;;;19.20;72.00;;;;;;4945631;29;20205;-92
2023/05/06 10:08:46;;;;;;;7.13;3.70;;;19.00;72.90;;;;;;4961361;28;20197;-92
2023/05/06 10:11:15;;;;;;;4.55;3.08;;;19.20;68.50;;;;;;4946866;28;20287;-91
2023/05/06 10:13:44;;;;;;;5.10;3.70;;;18.90;73.90;;;;;;4932019;28;20260;-90
2023/05/06 10:16:11;;;;;;;4.35;3.13;;;18.70;78.60;;;;;;4941513;28;20235;-91
2023/05/06 10:18:41;;;;;;;3.70;2.88;;;18.70;79.90;;;;;;4958572;28;20315;-91
2023/05/06 10:21:20;;;;;;;5.72;3.35;;;18.80;80.00;;;;;;4928095;28;20207;-90
2023/05/06 10:23:55;;;;;;;5.45;2.90;;;19.00;80.20;;;;;;4939058;28;20292;-93
2023/05/06 10:29:09;;;;;;;4.43;2.80;;;20.10;76.00;;;;;;4987031;28;21091;-91
2023/05/06 10:31:43;;;;;;;3.60;2.92;;;20.60;69.30;;;;;;4985017;28;20215;-90
2023/05/06 10:34:10;;;;;;;4.13;2.97;;;21.10;55.00;;;;;;4998576;28;20184;-87
2023/05/06 10:39:13;;;;;;;3.10;2.83;;;21.40;50.80;;;;;;5339429;23;20465;-91
2023/05/06 10:44:17;;;;;;;3.05;2.70;;;22.70;35.40;;;;;;5211941;22;20227;-87
2023/05/06 10:49:20;;;;;;;5.93;3.22;;;22.50;34.20;;;;;;5068632;22;20235;-86
2023/05/06 11:12:54;;;;;;;5.80;3.58;;;23.30;28.50;;;;;;5094240;27;20572;-87
2023/05/06 11:15:26;;;;;;;3.75;2.97;;;21.40;34.30;;;;;;5063407;28;20221;-90
2023/05/06 11:17:54;;;;;;;2.83;2.40;;;21.40;33.30;;;;;;5063994;28;20225;-88
2023/05/06 11:20:22;;;;;;;3.05;2.50;;;21.10;33.00;;;;;;5063736;28;20251;-88
2023/05/06 11:22:50;;;;;;;6.07;3.10;;;20.70;37.70;;;;;;5391876;22;20241;-89
2023/05/06 11:25:45;;;;;;;5.55;2.83;;;20.50;44.90;;;;;;5074147;28;20212;-92
2023/05/06 11:28:15;;;;;;;4.55;2.63;;;20.30;47.60;;;;;;5064461;28;20684;-90
2023/05/06 11:30:43;;;;;;;3.40;3.05;;;20.20;47.40;;;;;;5485009;22;20204;-87
2023/05/06 11:35:41;;;;;;;5.82;3.70;;;20.70;36.50;;;;;;5065827;28;20228;-90
2023/05/06 11:38:09;;;;;;;4.68;2.58;;;21.00;39.40;;;;;;5066331;28;20202;-90
2023/05/06 11:40:36;;;;;;;3.55;1.88;;;21.10;38.00;;;;;;5046794;28;20667;-92
2023/05/06 11:43:15;;;;;;;2.10;1.90;;;21.20;35.00;;;;;;5070969;28;20567;-93
2023/05/06 11:45:43;;;;;;;4.05;2.35;;;21.10;33.00;;;;;;5068575;28;20215;-89
2023/05/06 11:48:12;;;;;;;2.17;1.90;;;21.20;36.20;;;;;;5065890;28;20201;-89
2023/05/06 11:50:39;;;;;;;4.28;2.22;;;21.90;31.50;;;;;;5069174;28;20202;-90
2023/05/06 11:53:06;;;;;;;4.35;2.20;;;22.40;29.00;;;;;;5073320;28;20216;-92
2023/05/06 11:55:33;;;;;;;4.95;2.17;;;22.60;27.40;;;;;;5063907;28;20235;-94
2023/05/06 11:58:00;;;;;;;2.25;2.05;;;22.30;29.60;;;;;;5066595;28;20215;-91
2023/05/06 12:00:28;;;;;;;4.53;2.13;;;21.80;29.00;;;;;;5068119;28;20200;-92
2023/05/06 12:02:56;;;;;;;5.22;2.50;;;21.40;33.20;;;;;;5064643;28;20190;-92
2023/05/06 12:05:23;;;;;;;4.72;2.40;;;21.00;32.90;;;;;;5062149;28;20194;-91
2023/05/06 12:07:50;;;;;;;3.00;2.30;;;21.10;33.00;;;;;;5067759;28;20197;-92
2023/05/06 12:10:19;;;;;;;5.70;2.28;;;21.30;33.20;;;;;;5060123;28;20208;-92
2023/05/06 12:12:46;;;;;;;3.45;2.60;;;21.60;30.20;;;;;;5054494;28;20234;-92
2023/05/06 12:15:13;;;;;;;3.95;2.20;;;21.60;32.30;;;;;;5030591;28;20202;-93
2023/05/06 12:17:42;;;;;;;3.38;2.05;;;21.80;29.60;;;;;;5030550;28;20276;-92
2023/05/06 12:20:11;;;;;;;2.60;2.03;;;21.90;29.20;;;;;;5043654;28;20582;-92
2023/05/06 12:22:39;;;;;;;5.38;2.35;;;21.90;29.60;;;;;;5050571;28;20222;-92
2023/05/06 12:25:14;;;;;;;2.97;2.10;;;22.00;28.10;;;;;;5044480;28;20212;-88
2023/05/06 12:27:41;;;;;;;3.92;2.22;;;21.90;30.50;;;;;;5050925;28;20197;-91
2023/05/06 12:30:09;;;;;;;2.55;2.30;;;21.80;28.80;;;;;;5049036;28;20210;-92
2023/05/06 12:32:55;;;;;;;6.10;3.25;;;22.00;30.40;;;;;;5046318;28;20194;-92
2023/05/06 12:35:27;;;;;;;3.95;2.30;;;21.90;29.00;;;;;;5064238;28;20216;-92
2023/05/06 12:37:54;;;;;;;2.28;2.08;;;22.10;27.10;;;;;;5062193;28;20205;-92
2023/05/06 12:40:21;;;;;;;4.30;2.22;;;22.00;28.00;;;;;;5036304;28;20203;-91
2023/05/06 12:42:54;;;;;;;2.38;2.10;;;22.20;31.10;;;;;;5058009;28;20202;-94
2023/05/06 12:47:58;;;;;;;3.03;2.17;;;22.10;26.80;;;;;;5262453;22;20229;-96
2023/05/06 12:50:36;;;;;;;4.07;2.10;;;21.70;25.80;;;;;;5081505;28;20197;-95
2023/05/06 12:53:03;;;;;;;4.07;2.17;;;21.30;27.60;;;;;;5078598;28;20197;-94
2023/05/06 12:55:30;;;;;;;3.80;2.10;;;21.30;26.80;;;;;;5073809;28;20533;-94
2023/05/06 12:57:57;;;;;;;2.17;2.00;;;21.40;26.40;;;;;;5073750;28;20251;-94
2023/05/06 13:00:24;;;;;;;4.75;2.28;;;21.30;27.30;;;;;;5077451;28;20194;-89
2023/05/06 13:02:51;;;;;;;5.25;2.38;;;21.30;26.70;;;;;;5073960;28;20240;-94
2023/05/06 13:05:18;;;;;;;3.30;1.95;;;21.20;26.60;;;;;;5076579;28;20197;-93
2023/05/06 13:07:47;;;;;;;3.60;2.30;;;21.10;27.00;;;;;;5069536;28;20205;-92
2023/05/06 13:10:14;;;;;;;2.85;2.10;;;20.90;29.60;;;;;;5072517;28;20299;-90
2023/05/06 13:12:42;;;;;;;6.88;3.28;;;20.70;31.20;;;;;;5066983;28;20288;-91
2023/05/06 13:15:10;;;;;;;4.70;2.20;;;20.70;31.70;;;;;;5070779;28;20197;-92
2023/05/06 13:17:37;;;;;;;5.00;1.95;;;21.10;30.90;;;;;;5078755;28;20299;-91
2023/05/06 13:20:06;;;;;;;3.00;2.20;;;21.30;30.80;;;;;;5089017;28;20189;-91
2023/05/06 13:22:32;;;;;;;2.15;1.75;;;21.30;27.90;;;;;;5095038;28;20248;-90
2023/05/06 13:25:02;;;;;;;5.20;2.40;;;21.30;27.60;;;;;;5093093;28;21425;-92
2023/05/06 13:27:30;;;;;;;3.70;2.10;;;21.40;31.30;;;;;;5092779;28;20196;-92
2023/05/06 13:29:57;;;;;;;7.13;2.92;;;21.30;29.00;;;;;;5090627;28;20207;-91
2023/05/06 13:32:24;;;;;;;3.85;2.42;;;21.10;28.10;;;;;;5091759;28;20207;-94
2023/05/06 13:34:51;;;;;;;2.97;2.10;;;20.90;29.30;;;;;;5088834;28;20200;-92
2023/05/06 13:37:18;;;;;;;3.08;1.95;;;21.10;29.80;;;;;;5086735;28;20208;-93
2023/05/06 13:39:45;;;;;;;3.50;2.20;;;21.30;27.70;;;;;;5086411;28;20611;-94
2023/05/06 13:42:14;;;;;;;2.50;1.98;;;21.40;28.40;;;;;;5085859;28;20217;-94
2023/05/06 13:44:41;;;;;;;2.90;2.10;;;21.50;26.20;;;;;;5091835;28;20559;-90
2023/05/06 13:47:08;;;;;;;3.28;1.80;;;21.70;28.00;;;;;;5092915;28;20235;-93
2023/05/06 13:49:35;;;;;;;2.63;2.00;;;21.90;26.60;;;;;;5096075;28;20204;-93
2023/05/06 13:52:03;;;;;;;3.47;1.80;;;21.70;25.80;;;;;;5091348;28;20201;-91
2023/05/06 13:54:30;;;;;;;4.65;2.15;;;21.90;26.70;;;;;;5089963;28;20618;-91
2023/05/06 13:59:39;;;;;;;8.65;2.30;;;22.30;26.10;;;;;;5092528;28;20283;-92
2023/05/06 14:02:08;;;;;;;3.03;1.90;;;22.30;24.50;;;;;;5089426;28;20220;-92
2023/05/06 14:04:36;;;;;;;2.13;1.90;;;22.20;24.70;;;;;;5087388;28;20219;-92
2023/05/06 14:07:03;;;;;;;5.28;2.05;;;22.10;25.20;;;;;;5108088;28;20204;-92
2023/05/06 14:09:30;;;;;;;2.00;1.90;;;22.00;25.70;;;;;;5329946;22;20270;-92
2023/05/06 14:11:57;;;;;;;2.13;1.90;;;21.70;25.20;;;;;;5065806;28;20225;-90
2023/05/06 14:14:26;;;;;;;2.20;1.90;;;21.40;26.70;;;;;;5065606;28;20236;-89
2023/05/06 14:16:56;;;;;;;3.03;2.05;;;21.30;26.90;;;;;;5062269;28;20237;-90
2023/05/06 14:19:23;;;;;;;3.85;2.30;;;21.40;28.10;;;;;;5044556;28;20221;-90
2023/05/06 14:21:51;;;;;;;2.55;2.25;;;21.40;28.20;;;;;;5045495;28;20222;-90
2023/05/06 14:24:18;;;;;;;2.70;2.00;;;21.20;28.50;;;;;;5050691;28;20210;-90
2023/05/06 14:26:45;;;;;;;3.63;1.92;;;21.10;29.70;;;;;;5057195;28;20210;-89
2023/05/06 14:29:12;;;;;;;3.25;2.10;;;21.00;28.80;;;;;;5060362;28;20220;-89
2023/05/06 14:31:40;;;;;;;4.18;2.20;;;20.90;28.60;;;;;;5053340;28;20668;-93
2023/05/06 14:34:12;;;;;;;2.83;1.92;;;21.00;28.10;;;;;;5053513;28;20198;-90
2023/05/06 14:36:39;;;;;;;2.80;2.03;;;21.10;28.70;;;;;;5050422;28;20198;-90
2023/05/06 14:39:06;;;;;;;2.50;1.60;;;21.20;25.80;;;;;;5044212;28;20194;-89
2023/05/06 14:41:36;;;;;;;1.92;1.70;;;21.30;24.80;;;;;;5047164;28;20739;-90
2023/05/06 14:44:03;;;;;;;2.47;1.85;;;21.30;26.10;;;;;;5045616;28;20538;-90
2023/05/06 14:46:30;;;;;;;2.65;1.98;;;21.10;26.40;;;;;;5045215;28;20220;-90
2023/05/06 14:48:57;;;;;;;3.65;2.10;;;20.90;28.20;;;;;;5046945;28;20198;-91
2023/05/06 14:51:25;;;;;;;3.22;2.05;;;20.80;27.70;;;;;;5046668;28;20198;-90
2023/05/06 14:53:52;;;;;;;2.05;1.85;;;20.70;29.40;;;;;;5049452;28;20259;-91
2023/05/06 14:56:19;;;;;;;3.40;1.88;;;20.60;29.80;;;;;;5046784;28;20212;-90
2023/05/06 14:58:46;;;;;;;3.65;1.83;;;20.60;29.10;;;;;;5045313;28;20222;-90
2023/05/06 15:01:14;;;;;;;2.40;1.60;;;20.70;28.20;;;;;;5037829;28;20271;-90
2023/05/06 15:03:41;;;;;;;4.00;2.10;;;20.70;30.40;;;;;;5045036;28;20218;-89
2023/05/06 15:06:08;;;;;;;2.22;1.90;;;20.70;27.40;;;;;;5051408;28;20209;-90
2023/05/06 15:08:37;;;;;;;2.53;1.70;;;20.80;27.80;;;;;;5047214;28;20213;-92
2023/05/06 15:11:04;;;;;;;2.72;2.10;;;21.00;27.20;;;;;;5050372;28;20589;-89
2023/05/06 15:13:30;;;;;;;2.88;1.70;;;21.20;27.20;;;;;;5045226;28;20202;-89
2023/05/06 15:15:57;;;;;;;4.70;1.92;;;21.20;26.70;;;;;;5051127;28;20536;-90
2023/05/06 15:18:24;;;;;;;5.60;2.30;;;21.00;26.70;;;;;;5048863;28;20797;-91
2023/05/06 15:20:53;;;;;;;1.90;1.80;;;20.90;25.00;;;;;;5046047;28;20198;-91
2023/05/06 15:23:21;;;;;;;2.83;1.83;;;20.70;27.10;;;;;;5046967;28;20221;-90
2023/05/06 15:25:49;;;;;;;3.03;2.20;;;20.70;28.30;;;;;;5042212;28;20205;-91
2023/05/06 15:28:17;;;;;;;1.95;1.73;;;20.60;28.10;;;;;;5049069;28;20267;-91
2023/05/06 15:30:46;;;;;;;3.90;2.05;;;20.60;26.70;;;;;;5044141;28;20613;-89
2023/05/06 15:33:13;;;;;;;3.75;1.80;;;20.70;25.40;;;;;;5043432;28;20213;-91
2023/05/06 15:35:40;;;;;;;1.80;1.70;;;20.70;25.30;;;;;;5046883;28;20264;-88
2023/05/06 15:38:07;;;;;;;2.65;2.25;;;20.50;26.70;;;;;;5041933;28;20196;-90
2023/05/06 15:40:34;;;;;;;3.75;2.83;;;20.40;26.70;;;;;;5051158;28;20971;-91
2023/05/06 15:43:04;;;;;;;11.27;9.50;;;20.30;29.00;;;;;;5044516;28;20618;-89
2023/05/06 15:45:31;;;;;;;8.32;6.10;;;20.20;29.20;;;;;;5039890;28;20217;-91
2023/05/06 15:47:58;;;;;;;8.93;7.65;;;20.30;28.70;;;;;;5046399;28;20658;-90
2023/05/06 15:50:25;;;;;;;2.83;1.77;;;20.20;30.40;;;;;;5049366;28;20194;-91
2023/05/06 15:52:52;;;;;;;2.50;1.60;;;20.20;29.50;;;;;;5046682;28;20202;-90
2023/05/06 15:55:19;;;;;;;3.95;1.77;;;20.20;28.50;;;;;;5053274;28;20587;-92
2023/05/06 15:57:46;;;;;;;2.67;1.65;;;20.30;29.10;;;;;;5048241;28;20198;-92
2023/05/06 16:00:16;;;;;;;2.35;1.63;;;20.50;28.70;;;;;;5050732;28;20212;-93
2023/05/06 16:02:43;;;;;;;2.00;1.70;;;20.50;27.60;;;;;;5059459;28;20220;-95
2023/05/06 16:05:10;;;;;;;1.80;1.60;;;20.70;27.20;;;;;;5071599;28;20205;-96
2023/05/06 16:07:37;;;;;;;2.03;1.77;;;20.60;27.80;;;;;;5131150;22;20419;-92
2023/05/06 16:12:39;;;;;;;2.17;1.75;;;20.60;27.60;;;;;;5289102;22;20640;-93
2023/05/06 16:15:08;;;;;;;13.90;11.40;;;20.50;28.00;;;;;;5074857;28;20236;-96
2023/05/06 16:17:37;;;;;;;2.85;2.05;;;20.40;26.90;;;;;;5072220;28;20221;-95
2023/05/06 16:20:05;;;;;;;2.72;1.70;;;20.30;27.70;;;;;;5075994;28;20202;-95
2023/05/06 16:22:32;;;;;;;2.15;1.95;;;20.40;28.40;;;;;;5083431;28;20255;-95
2023/05/06 16:24:59;;;;;;;3.83;3.00;;;20.30;27.70;;;;;;5082162;28;20540;-94
2023/05/06 16:27:27;;;;;;;1.70;1.60;;;20.20;28.70;;;;;;5067019;28;20205;-94
2023/05/06 16:29:54;;;;;;;2.08;1.80;;;20.10;29.70;;;;;;5082704;28;20224;-85
2023/05/06 16:32:21;;;;;;;2.10;1.63;;;20.00;30.70;;;;;;5073705;28;20550;-90
2023/05/06 16:34:50;;;;;;;1.92;1.60;;;20.00;32.10;;;;;;5050341;28;20254;-90
2023/05/06 16:37:17;;;;;;;2.13;1.60;;;19.90;32.00;;;;;;5039481;28;20212;-89
2023/05/06 16:39:44;;;;;;;1.83;1.45;;;19.90;32.00;;;;;;5053999;28;20197;-90
2023/05/06 16:42:11;;;;;;;5.25;3.28;;;20.00;31.70;;;;;;5072109;28;20220;-89
2023/05/06 16:44:38;;;;;;;2.88;2.65;;;20.00;32.10;;;;;;5069747;28;20693;-89
2023/05/06 16:47:05;;;;;;;3.33;2.70;;;20.00;32.10;;;;;;5069463;28;20197;-90
2023/05/06 16:49:32;;;;;;;3.42;1.80;;;20.00;32.10;;;;;;5070419;28;20753;-93
2023/05/06 16:52:01;;;;;;;2.42;2.08;;;20.00;31.60;;;;;;5052543;28;20681;-89
2023/05/06 16:54:27;;;;;;;3.08;2.00;;;20.00;32.10;;;;;;5070303;28;20204;-89
2023/05/06 16:56:55;;;;;;;2.35;1.73;;;20.10;32.20;;;;;;5069341;28;20208;-89
2023/05/06 16:59:22;;;;;;;4.40;2.72;;;20.20;32.20;;;;;;5070652;28;20224;-89
2023/05/06 17:01:49;;;;;;;4.60;2.20;;;20.10;32.20;;;;;;5051253;28;20259;-89